Time;durP1;ratioP1;P1;durP2;ratioP2;P2;SDS_P1;SDS_P2;PMS_P1;PMS_P2;Temp;Humidity;BMP_temperature;BMP_pressure;BME280_temperature;BME280_humidity;BME280_pressure;Samples;Min_cycle;Max_cycle;Signal;HPM_P1;HPM_P2
2022/01/19 00:00:42;;;;;;;34.67;18.95;;;4.10;99.90;;;;;;5033254;28;20044;-69
2022/01/19 00:03:46;;;;;;;37.17;19.40;;;4.20;99.90;;;;;;5034877;28;20056;-68
2022/01/19 00:06:50;;;;;;;40.53;21.70;;;4.20;99.90;;;;;;5034943;28;20384;-68
2022/01/19 00:09:54;;;;;;;32.55;21.45;;;4.20;99.90;;;;;;5033936;28;20056;-68
2022/01/19 00:13:00;;;;;;;32.80;18.77;;;4.20;99.90;;;;;;5021473;28;20056;-68
2022/01/19 00:16:04;;;;;;;25.13;13.77;;;4.20;99.90;;;;;;5036223;28;20049;-68
2022/01/19 00:19:09;;;;;;;30.55;15.02;;;4.10;99.90;;;;;;5033183;28;20056;-68
2022/01/19 00:22:14;;;;;;;27.55;16.73;;;4.10;99.90;;;;;;5033234;28;20037;-68
2022/01/19 00:25:18;;;;;;;24.02;14.27;;;4.10;99.90;;;;;;5034194;28;20044;-68
2022/01/19 00:28:23;;;;;;;33.65;17.63;;;4.10;99.90;;;;;;5034054;28;20045;-68
2022/01/19 00:31:29;;;;;;;25.30;15.10;;;4.00;99.90;;;;;;5032739;28;20060;-68
2022/01/19 00:34:33;;;;;;;23.55;13.10;;;3.80;99.90;;;;;;5033060;28;20064;-68
2022/01/19 00:37:40;;;;;;;15.57;9.38;;;3.70;99.90;;;;;;5032771;28;20040;-69
2022/01/19 00:40:46;;;;;;;19.00;10.68;;;3.60;99.90;;;;;;5032464;28;20615;-68
2022/01/19 00:43:50;;;;;;;14.82;8.88;;;3.40;99.90;;;;;;5033521;28;20040;-68
2022/01/19 00:46:55;;;;;;;21.23;12.38;;;3.40;99.90;;;;;;5031830;28;20049;-68
2022/01/19 00:49:59;;;;;;;22.90;12.60;;;3.40;99.90;;;;;;5032186;28;20056;-68
2022/01/19 00:53:03;;;;;;;23.00;12.25;;;3.40;99.90;;;;;;5043461;28;20064;-68
2022/01/19 00:56:08;;;;;;;28.23;14.20;;;3.50;99.90;;;;;;5032505;28;20384;-68
2022/01/19 00:59:12;;;;;;;27.15;15.88;;;3.60;99.90;;;;;;5033923;28;20054;-68
2022/01/19 01:02:16;;;;;;;29.02;15.07;;;3.60;99.90;;;;;;5032335;28;20048;-68
2022/01/19 01:05:22;;;;;;;25.65;13.95;;;3.50;99.90;;;;;;5032112;28;20044;-68
2022/01/19 01:08:25;;;;;;;24.05;13.95;;;3.40;99.90;;;;;;5032004;28;20048;-69
2022/01/19 01:11:35;;;;;;;32.25;17.35;;;3.40;99.90;;;;;;5032006;28;20053;-68
2022/01/19 01:21:10;;;;;;;35.80;15.75;;;3.10;99.90;;;;;;5030992;28;20223;-68
2022/01/19 01:24:14;;;;;;;38.08;20.20;;;3.10;99.90;;;;;;5042861;28;20048;-68
2022/01/19 01:27:18;;;;;;;28.80;15.77;;;3.10;99.90;;;;;;5019474;28;20041;-69
2022/01/19 01:30:23;;;;;;;24.75;14.02;;;3.00;99.90;;;;;;5031513;28;20416;-68
2022/01/19 01:33:26;;;;;;;28.00;15.85;;;3.00;99.90;;;;;;5032135;28;20515;-68
2022/01/19 01:36:30;;;;;;;23.95;13.00;;;3.00;99.90;;;;;;5031655;28;20044;-68
2022/01/19 01:39:35;;;;;;;21.80;13.45;;;2.90;99.90;;;;;;5041952;28;20045;-68
2022/01/19 01:42:40;;;;;;;25.45;14.45;;;2.90;99.90;;;;;;5031061;28;20416;-68
2022/01/19 01:45:47;;;;;;;28.73;14.88;;;3.00;99.90;;;;;;5030923;28;20048;-68
2022/01/19 01:48:51;;;;;;;26.13;14.60;;;3.00;99.90;;;;;;5030040;28;20040;-68
2022/01/19 01:55:23;;;;;;;16.83;9.13;;;3.00;99.90;;;;;;5030481;28;20045;-68
2022/01/19 01:58:29;;;;;;;18.38;9.60;;;3.00;99.90;;;;;;5030208;28;20052;-68
2022/01/19 02:01:54;;;;;;;29.42;15.80;;;3.00;99.90;;;;;;5025924;28;20056;-68
2022/01/19 02:04:58;;;;;;;29.92;15.95;;;2.80;99.90;;;;;;5031076;28;20045;-68
2022/01/19 02:08:10;;;;;;;32.45;18.20;;;2.80;99.90;;;;;;5041475;28;20404;-68
2022/01/19 02:11:36;;;;;;;13.88;8.02;;;2.80;99.90;;;;;;5030343;28;20049;-68
2022/01/19 02:21:56;;;;;;;14.93;7.68;;;2.80;99.90;;;;;;5030457;28;20410;-68
2022/01/19 02:25:04;;;;;;;15.77;9.40;;;2.90;99.90;;;;;;5030285;28;20044;-68
2022/01/19 02:41:25;;;;;;;27.27;13.57;;;2.40;99.90;;;;;;5029981;28;20044;-69
2022/01/19 02:46:32;;;;;;;31.27;17.17;;;2.40;99.90;;;;;;5030940;28;20184;-68
2022/01/19 02:51:16;;;;;;;46.83;25.13;;;2.40;99.90;;;;;;5029389;28;20056;-68
2022/01/19 02:54:22;;;;;;;43.58;24.83;;;2.40;99.90;;;;;;5030561;28;20396;-68
2022/01/19 02:57:27;;;;;;;39.95;22.40;;;2.50;99.90;;;;;;5029613;28;20499;-68
2022/01/19 03:10:20;;;;;;;48.05;26.80;;;2.30;99.90;;;;;;5030197;28;20378;-69
2022/01/19 03:13:24;;;;;;;48.60;26.15;;;2.30;99.90;;;;;;5029733;28;20053;-68
2022/01/19 03:16:28;;;;;;;40.67;20.42;;;2.20;99.90;;;;;;5041179;28;20048;-68
2022/01/19 03:19:34;;;;;;;38.92;22.77;;;2.20;99.90;;;;;;5028707;28;20046;-68
2022/01/19 03:23:18;;;;;;;41.75;22.58;;;2.20;99.90;;;;;;5029231;28;20048;-68
2022/01/19 03:26:10;;;;;;;40.38;21.15;;;2.10;99.90;;;;;;5018236;28;20045;-68
2022/01/19 03:29:35;;;;;;;38.40;22.73;;;2.10;99.90;;;;;;5029542;28;20048;-68
2022/01/19 03:32:39;;;;;;;40.70;21.92;;;2.10;99.90;;;;;;5029395;28;20048;-68
2022/01/19 03:35:44;;;;;;;43.55;23.35;;;2.00;99.90;;;;;;5029813;28;20052;-68
2022/01/19 03:38:48;;;;;;;36.88;22.00;;;1.90;99.90;;;;;;5040705;28;20109;-68
2022/01/19 03:41:52;;;;;;;45.33;25.27;;;1.90;99.90;;;;;;5007635;28;20044;-68
2022/01/19 03:44:58;;;;;;;38.90;22.52;;;1.90;99.90;;;;;;5029378;28;20113;-68
2022/01/19 03:51:30;;;;;;;44.55;24.25;;;2.10;99.90;;;;;;5021161;28;20053;-68
2022/01/19 03:54:40;;;;;;;48.65;28.08;;;2.10;99.90;;;;;;5030255;28;20495;-68
2022/01/19 03:57:45;;;;;;;50.47;27.25;;;2.00;99.90;;;;;;5029101;28;20045;-68
2022/01/19 04:00:53;;;;;;;46.88;26.10;;;2.00;99.90;;;;;;5040662;28;20052;-68
2022/01/19 04:07:09;;;;;;;38.50;22.55;;;1.90;99.90;;;;;;5032857;28;20052;-68
2022/01/19 04:10:16;;;;;;;38.05;21.92;;;1.80;99.90;;;;;;5033348;28;20044;-68
2022/01/19 04:16:27;;;;;;;42.00;25.02;;;1.70;99.90;;;;;;5032895;28;20044;-68
2022/01/19 04:19:43;;;;;;;33.72;20.02;;;1.70;99.90;;;;;;5032940;28;20053;-69
2022/01/19 04:22:51;;;;;;;36.45;21.75;;;1.70;99.90;;;;;;5032328;28;20044;-68
2022/01/19 04:25:56;;;;;;;45.30;24.30;;;1.60;99.90;;;;;;5032462;28;20037;-68
2022/01/19 04:29:01;;;;;;;34.97;19.70;;;1.50;99.90;;;;;;5031919;28;20052;-68
2022/01/19 04:32:11;;;;;;;39.88;21.80;;;1.40;99.90;;;;;;5043690;28;20040;-68
2022/01/19 04:35:23;;;;;;;34.63;20.52;;;1.30;99.90;;;;;;5032370;28;20060;-68
2022/01/19 05:05:46;;;;;;;31.63;16.98;;;1.40;99.90;;;;;;5032899;28;20048;-68
2022/01/19 05:15:26;;;;;;;34.00;19.73;;;1.30;99.90;;;;;;5031636;28;20044;-68
2022/01/19 05:18:31;;;;;;;31.40;18.67;;;1.30;99.90;;;;;;5031221;28;20048;-68
2022/01/19 05:21:36;;;;;;;35.70;19.17;;;1.40;99.90;;;;;;5031951;28;20045;-68
2022/01/19 05:24:47;;;;;;;37.97;20.08;;;1.30;99.90;;;;;;5032269;28;20048;-68
2022/01/19 05:28:04;;;;;;;41.63;19.55;;;1.30;99.90;;;;;;5042403;28;20052;-68
2022/01/19 05:31:08;;;;;;;42.03;22.35;;;1.30;99.90;;;;;;5039008;28;20071;-70
2022/01/19 05:34:16;;;;;;;44.40;23.50;;;1.30;99.90;;;;;;5030675;28;20554;-68
2022/01/19 05:37:37;;;;;;;53.83;27.83;;;1.30;99.90;;;;;;5042584;28;20404;-68
2022/01/19 05:41:11;;;;;;;53.30;27.02;;;1.30;99.90;;;;;;5017421;28;20064;-68
2022/01/19 05:44:17;;;;;;;55.63;28.45;;;1.30;99.90;;;;;;5042126;28;20392;-67
2022/01/19 05:47:21;;;;;;;48.60;25.70;;;1.30;99.90;;;;;;5042410;28;20399;-68
2022/01/19 05:50:26;;;;;;;49.22;25.85;;;1.30;99.90;;;;;;5041663;28;20435;-68
2022/01/19 05:53:36;;;;;;;34.35;19.85;;;1.30;99.90;;;;;;5042247;28;20049;-68
2022/01/19 05:56:44;;;;;;;34.60;19.77;;;1.20;99.90;;;;;;5019891;28;20048;-68
2022/01/19 05:59:59;;;;;;;31.90;18.50;;;1.20;99.90;;;;;;5029850;28;20064;-68
2022/01/19 06:03:04;;;;;;;34.75;18.83;;;1.20;99.90;;;;;;5041542;28;20040;-68
2022/01/19 06:06:19;;;;;;;32.63;16.40;;;1.20;99.90;;;;;;5030028;28;20625;-68
2022/01/19 06:10:07;;;;;;;33.65;16.75;;;1.10;99.90;;;;;;5023902;28;20510;-68
2022/01/19 06:13:18;;;;;;;27.83;17.10;;;1.20;99.90;;;;;;5030680;28;20056;-69
2022/01/19 06:16:24;;;;;;;26.38;15.90;;;1.10;99.90;;;;;;5030254;28;20048;-68
2022/01/19 06:19:28;;;;;;;36.92;15.43;;;1.10;99.90;;;;;;5042227;28;20048;-67
2022/01/19 06:22:32;;;;;;;27.63;13.95;;;1.10;99.90;;;;;;5042811;28;20049;-68
2022/01/19 06:25:37;;;;;;;25.60;15.02;;;1.00;99.90;;;;;;5030371;28;20127;-68
2022/01/19 06:28:42;;;;;;;27.30;14.27;;;0.90;99.90;;;;;;5041324;28;20064;-68
2022/01/19 06:31:46;;;;;;;24.88;13.40;;;0.80;99.90;;;;;;5031354;28;20052;-68
2022/01/19 06:34:52;;;;;;;29.73;15.95;;;0.80;99.90;;;;;;5030294;28;20053;-68
2022/01/19 06:37:59;;;;;;;24.60;14.32;;;0.80;99.90;;;;;;5031131;28;20064;-68
2022/01/19 06:41:23;;;;;;;34.03;19.30;;;0.70;99.90;;;;;;5030269;28;20044;-68
2022/01/19 06:44:28;;;;;;;37.03;18.40;;;0.70;99.90;;;;;;5029574;28;20044;-68
2022/01/19 06:47:33;;;;;;;27.08;15.60;;;0.60;99.90;;;;;;5030682;28;20048;-68
2022/01/19 06:50:39;;;;;;;28.60;16.52;;;0.60;99.90;;;;;;5029984;28;20112;-68
2022/01/19 06:53:45;;;;;;;32.35;17.05;;;0.70;99.90;;;;;;5032358;28;20053;-68
2022/01/19 06:56:58;;;;;;;27.40;15.10;;;0.70;99.90;;;;;;5031654;28;20416;-68
2022/01/19 07:00:06;;;;;;;33.97;18.08;;;0.70;99.90;;;;;;5041948;28;20056;-68
2022/01/19 07:03:42;;;;;;;27.85;14.75;;;0.70;99.90;;;;;;5032608;28;20049;-67
2022/01/19 07:06:58;;;;;;;27.08;14.73;;;0.70;99.90;;;;;;5041619;28;20044;-68
2022/01/19 07:10:10;;;;;;;35.95;18.40;;;0.80;99.90;;;;;;5048746;28;20056;-67
2022/01/19 07:13:17;;;;;;;36.03;20.63;;;0.90;99.90;;;;;;5049596;28;20442;-68
2022/01/19 07:16:21;;;;;;;38.72;20.60;;;1.80;99.90;;;;;;5041807;28;20060;-68
2022/01/19 07:19:26;;;;;;;32.00;17.40;;;4.80;99.90;;;;;;5028975;28;20060;-68
2022/01/19 07:22:30;;;;;;;27.15;16.20;;;8.00;99.90;;;;;;5030030;28;20044;-68
2022/01/19 07:25:40;;;;;;;26.38;16.02;;;10.70;99.90;;;;;;5029594;28;20391;-68
2022/01/19 07:28:44;;;;;;;26.35;16.70;;;12.90;99.90;;;;;;5041516;28;20043;-69
2022/01/19 07:31:48;;;;;;;35.22;23.60;;;14.70;99.20;;;;;;5027956;28;20036;-68
2022/01/19 07:34:52;;;;;;;27.80;18.83;;;16.20;95.20;;;;;;5042500;28;20040;-69
2022/01/19 07:37:57;;;;;;;174.13;109.38;;;17.30;94.20;;;;;;5050628;28;20044;-69
2022/01/19 07:41:02;;;;;;;213.50;141.60;;;18.00;91.90;;;;;;5055431;28;20044;-69
2022/01/19 07:44:08;;;;;;;86.05;58.83;;;17.80;90.30;;;;;;5055662;28;20043;-69
2022/01/19 07:47:33;;;;;;;67.30;44.50;;;18.10;89.20;;;;;;5055449;28;20044;-70
2022/01/19 07:50:53;;;;;;;64.57;45.05;;;18.70;88.20;;;;;;5040254;28;20498;-70
2022/01/19 07:54:09;;;;;;;29.38;21.73;;;19.70;83.80;;;;;;5050795;28;20044;-70
2022/01/19 07:57:32;;;;;;;28.50;19.33;;;20.70;81.30;;;;;;5045711;28;20186;-70
2022/01/19 08:00:59;;;;;;;21.30;16.77;;;21.40;76.50;;;;;;5050906;28;20059;-70
2022/01/19 08:04:33;;;;;;;22.63;16.35;;;21.40;74.40;;;;;;5033422;28;20048;-70
2022/01/19 08:07:37;;;;;;;20.10;15.93;;;20.40;75.80;;;;;;5034099;28;20048;-70
2022/01/19 08:10:45;;;;;;;22.60;16.38;;;20.80;75.80;;;;;;5034664;28;20051;-70
2022/01/19 08:13:49;;;;;;;19.92;15.55;;;21.90;74.00;;;;;;5044441;28;20040;-70
2022/01/19 08:16:55;;;;;;;20.90;14.85;;;22.70;73.30;;;;;;5032890;28;20056;-70
2022/01/19 08:20:03;;;;;;;19.40;15.52;;;23.60;71.00;;;;;;5043515;28;20057;-70
2022/01/19 08:23:08;;;;;;;20.10;15.85;;;23.10;68.80;;;;;;5032874;28;20045;-70
2022/01/19 08:26:28;;;;;;;21.13;17.25;;;22.30;69.90;;;;;;5040218;28;20049;-71
2022/01/19 08:29:34;;;;;;;17.38;14.32;;;22.10;67.70;;;;;;5038978;28;20387;-70
2022/01/19 08:32:42;;;;;;;19.38;15.43;;;20.20;70.60;;;;;;5051436;28;20503;-70
2022/01/19 08:35:46;;;;;;;19.35;15.77;;;21.10;70.80;;;;;;5049631;28;20048;-70
2022/01/19 08:39:07;;;;;;;20.77;15.63;;;22.60;69.70;;;;;;5052184;28;20112;-70
2022/01/19 08:42:14;;;;;;;20.17;15.45;;;23.40;67.50;;;;;;5038390;28;20048;-70
2022/01/19 08:45:18;;;;;;;18.33;15.27;;;24.30;66.60;;;;;;5040280;28;20040;-70
2022/01/19 08:48:23;;;;;;;20.27;15.25;;;24.20;65.00;;;;;;5045367;28;20349;-71
2022/01/19 08:51:30;;;;;;;17.35;14.38;;;24.90;64.10;;;;;;5035151;28;20052;-68
2022/01/19 08:54:48;;;;;;;20.60;15.80;;;23.30;65.70;;;;;;5054130;28;20120;-69
2022/01/19 08:57:53;;;;;;;22.50;17.73;;;23.10;64.50;;;;;;5039730;28;20053;-69
2022/01/19 09:00:58;;;;;;;27.25;23.58;;;20.90;65.40;;;;;;5033480;28;20053;-70
2022/01/19 09:04:02;;;;;;;24.35;19.27;;;18.50;69.60;;;;;;5032367;28;20049;-70
2022/01/19 09:07:07;;;;;;;19.45;16.17;;;18.50;68.60;;;;;;5063074;28;20073;-70
2022/01/19 09:10:13;;;;;;;22.98;17.48;;;16.10;74.80;;;;;;5048991;28;20056;-71
2022/01/19 09:13:18;;;;;;;22.70;17.55;;;17.40;73.30;;;;;;5052229;28;20395;-70
2022/01/19 09:16:22;;;;;;;22.67;17.65;;;16.80;75.10;;;;;;5054511;28;20490;-70
2022/01/19 09:19:26;;;;;;;24.38;18.33;;;19.60;71.50;;;;;;5054527;28;20054;-71
2022/01/19 09:22:30;;;;;;;38.13;31.60;;;17.90;70.20;;;;;;5046756;28;20404;-71
2022/01/19 09:25:34;;;;;;;52.97;39.22;;;20.00;70.70;;;;;;5055182;28;20044;-69
2022/01/19 09:28:40;;;;;;;28.08;22.50;;;22.10;67.70;;;;;;5052571;28;20044;-70
2022/01/19 09:31:45;;;;;;;24.33;19.30;;;24.60;65.00;;;;;;5054081;28;20048;-70
2022/01/19 09:34:55;;;;;;;21.17;17.52;;;25.60;63.30;;;;;;5053932;28;20384;-70
2022/01/19 09:37:59;;;;;;;23.77;18.55;;;22.80;64.20;;;;;;5047452;28;20048;-71
2022/01/19 09:41:06;;;;;;;26.42;20.85;;;21.40;66.00;;;;;;5053011;28;20048;-71
2022/01/19 09:44:13;;;;;;;26.23;20.67;;;19.80;67.90;;;;;;5052665;28;20399;-71
2022/01/19 09:47:18;;;;;;;27.98;22.52;;;20.00;68.70;;;;;;5051264;28;20067;-71
2022/01/19 09:50:22;;;;;;;29.40;20.60;;;18.60;69.50;;;;;;5051958;28;20044;-71
2022/01/19 09:53:28;;;;;;;27.25;21.20;;;19.50;70.20;;;;;;5052628;28;20052;-71
2022/01/19 09:56:32;;;;;;;25.85;20.55;;;21.30;68.00;;;;;;5052470;28;20044;-70
2022/01/19 09:59:36;;;;;;;22.40;18.38;;;21.80;66.70;;;;;;5049153;28;20036;-71
2022/01/19 10:02:40;;;;;;;21.77;16.58;;;24.80;64.40;;;;;;5051833;28;20507;-70
2022/01/19 10:05:58;;;;;;;21.38;17.42;;;26.60;61.60;;;;;;5050766;28;20510;-69
2022/01/19 10:09:02;;;;;;;26.13;19.70;;;26.40;60.40;;;;;;5052645;28;20412;-69
2022/01/19 10:18:38;;;;;;;32.28;23.65;;;17.30;71.50;;;;;;5031491;28;20044;-71
2022/01/19 10:22:07;;;;;;;28.60;22.55;;;16.40;73.80;;;;;;5051002;28;20063;-71
2022/01/19 10:25:11;;;;;;;29.42;22.67;;;17.60;71.90;;;;;;5047272;28;20044;-70
2022/01/19 10:28:16;;;;;;;30.98;23.63;;;19.90;69.30;;;;;;5050824;28;20040;-71
2022/01/19 10:31:20;;;;;;;31.08;22.85;;;21.00;67.60;;;;;;5050169;28;20044;-70
2022/01/19 10:34:24;;;;;;;33.65;20.88;;;20.90;66.40;;;;;;5050711;28;20060;-70
2022/01/19 10:37:29;;;;;;;28.02;20.90;;;22.40;63.50;;;;;;5032672;28;20619;-70
2022/01/19 10:40:34;;;;;;;28.83;22.00;;;22.80;64.40;;;;;;5034708;28;20503;-69
2022/01/19 10:43:45;;;;;;;25.38;19.75;;;21.80;65.20;;;;;;5051334;28;20506;-69
2022/01/19 10:46:49;;;;;;;26.25;19.67;;;20.70;67.50;;;;;;5051572;28;20032;-68
2022/01/19 10:49:56;;;;;;;27.83;22.33;;;21.20;66.80;;;;;;5051099;28;20047;-68
2022/01/19 10:53:03;;;;;;;25.23;19.48;;;22.00;65.10;;;;;;5050776;28;20052;-68
2022/01/19 10:56:26;;;;;;;27.38;20.05;;;23.40;63.80;;;;;;5052554;28;20047;-68
2022/01/19 10:59:32;;;;;;;25.02;20.60;;;22.70;64.80;;;;;;5050514;28;20056;-68
2022/01/19 11:02:38;;;;;;;24.40;19.52;;;23.10;64.30;;;;;;5049414;28;20071;-68
2022/01/19 11:05:45;;;;;;;27.10;21.10;;;23.40;62.90;;;;;;5050715;28;20036;-69
2022/01/19 11:08:50;;;;;;;25.38;20.23;;;22.20;63.90;;;;;;5042246;28;20383;-69
2022/01/19 11:12:02;;;;;;;27.85;21.15;;;22.80;64.80;;;;;;5049954;28;20044;-69
2022/01/19 11:15:08;;;;;;;31.23;20.27;;;21.70;64.70;;;;;;5030932;28;20052;-68
2022/01/19 11:18:11;;;;;;;26.88;20.17;;;22.10;65.40;;;;;;5044524;28;20056;-68
2022/01/19 11:21:22;;;;;;;24.90;19.63;;;20.70;65.60;;;;;;5049858;28;20112;-68
2022/01/19 11:24:48;;;;;;;24.75;18.90;;;21.60;67.10;;;;;;5050577;28;20052;-68
2022/01/19 11:27:53;;;;;;;21.92;17.15;;;23.40;64.90;;;;;;5050072;28;20044;-69
2022/01/19 11:30:57;;;;;;;21.92;17.45;;;25.20;62.90;;;;;;5047475;28;20434;-69
2022/01/19 11:34:02;;;;;;;18.10;15.48;;;25.70;62.50;;;;;;5049308;28;20047;-67
2022/01/19 11:37:06;;;;;;;18.95;15.27;;;25.50;61.40;;;;;;5049043;28;20064;-67
2022/01/19 11:40:16;;;;;;;18.75;14.88;;;27.00;59.90;;;;;;5047895;28;20103;-67
2022/01/19 11:43:25;;;;;;;17.08;15.00;;;24.40;61.50;;;;;;5048653;28;20056;-67
2022/01/19 11:46:32;;;;;;;17.45;13.57;;;25.50;62.10;;;;;;5041781;28;20108;-67
2022/01/19 11:49:55;;;;;;;18.00;14.85;;;27.60;59.40;;;;;;5048604;28;20048;-67
2022/01/19 11:53:07;;;;;;;16.55;14.02;;;25.70;59.10;;;;;;5047823;28;20044;-67
2022/01/19 11:56:12;;;;;;;20.42;14.10;;;22.00;61.40;;;;;;5049670;28;20490;-66
2022/01/19 11:59:16;;;;;;;17.08;13.05;;;22.60;62.80;;;;;;5049434;28;20045;-68
2022/01/19 12:02:32;;;;;;;18.55;13.68;;;23.00;63.50;;;;;;5049956;28;20103;-68
2022/01/19 12:05:42;;;;;;;17.20;12.30;;;21.70;62.50;;;;;;5049988;28;20044;-68
2022/01/19 12:08:55;;;;;;;17.52;12.70;;;22.90;63.10;;;;;;5048824;28;20040;-66
2022/01/19 12:12:15;;;;;;;15.45;12.05;;;24.60;60.40;;;;;;5049947;28;20043;-67
2022/01/19 12:15:49;;;;;;;15.55;12.00;;;23.80;60.60;;;;;;5049098;28;20119;-68
2022/01/19 12:19:03;;;;;;;20.63;14.57;;;25.50;59.10;;;;;;5048615;28;20048;-68
2022/01/19 12:22:26;;;;;;;17.98;13.57;;;24.30;59.40;;;;;;5049952;28;20040;-68
2022/01/19 12:25:54;;;;;;;21.35;15.88;;;25.10;60.50;;;;;;5051942;28;20044;-68
2022/01/19 12:28:58;;;;;;;19.08;12.85;;;26.10;59.10;;;;;;5053080;28;20048;-68
2022/01/19 12:32:28;;;;;;;21.95;15.93;;;25.70;59.40;;;;;;5053965;28;20059;-68
2022/01/19 12:35:36;;;;;;;23.58;17.63;;;24.80;58.20;;;;;;5056454;28;20072;-68
2022/01/19 12:38:40;;;;;;;27.70;18.05;;;24.90;60.10;;;;;;5052327;28;20048;-68
2022/01/19 12:42:12;;;;;;;18.40;13.63;;;25.80;59.60;;;;;;5053817;28;20110;-68
2022/01/19 12:45:17;;;;;;;14.80;11.50;;;26.60;58.90;;;;;;5044098;28;20364;-67
2022/01/19 12:48:55;;;;;;;16.73;12.00;;;27.80;58.10;;;;;;5052153;28;20052;-67
2022/01/19 12:52:00;;;;;;;15.00;11.85;;;27.30;57.50;;;;;;5037595;28;20052;-67
2022/01/19 12:55:18;;;;;;;14.75;10.73;;;26.90;57.90;;;;;;5049717;28;20048;-66
2022/01/19 12:58:29;;;;;;;15.73;10.38;;;26.00;58.80;;;;;;5052039;28;20048;-67
2022/01/19 13:01:34;;;;;;;12.25;9.27;;;25.60;59.00;;;;;;5043747;28;20040;-67
2022/01/19 13:04:40;;;;;;;14.52;9.95;;;24.40;60.40;;;;;;5039923;28;20040;-68
2022/01/19 13:07:52;;;;;;;13.40;9.93;;;22.50;60.60;;;;;;5043101;28;20048;-68
2022/01/19 13:11:06;;;;;;;16.67;10.30;;;24.50;61.00;;;;;;5051280;28;20391;-68
2022/01/19 13:14:12;;;;;;;18.23;11.15;;;25.50;60.40;;;;;;5052323;28;20036;-69
2022/01/19 13:17:16;;;;;;;15.15;11.07;;;25.00;58.60;;;;;;5028992;28;20052;-66
2022/01/19 13:20:23;;;;;;;16.10;11.10;;;25.60;59.40;;;;;;5032763;28;20044;-66
2022/01/19 13:23:34;;;;;;;14.93;10.30;;;23.40;61.30;;;;;;5032515;28;20040;-68
2022/01/19 13:26:54;;;;;;;19.02;12.55;;;23.50;62.00;;;;;;5032757;28;20044;-68
2022/01/19 13:29:58;;;;;;;16.77;11.02;;;21.90;61.80;;;;;;5031691;28;20044;-68
2022/01/19 13:33:11;;;;;;;14.63;11.35;;;22.80;62.70;;;;;;5046267;28;20048;-68
2022/01/19 13:36:16;;;;;;;16.52;10.50;;;22.20;61.20;;;;;;5051712;28;20048;-68
2022/01/19 13:39:22;;;;;;;12.85;9.65;;;23.60;61.30;;;;;;5050381;28;20059;-68
2022/01/19 13:42:37;;;;;;;14.38;10.07;;;24.20;59.80;;;;;;5035411;28;20048;-68
2022/01/19 13:48:57;;;;;;;12.95;9.55;;;25.60;59.10;;;;;;5044430;28;20044;-68
2022/01/19 13:52:01;;;;;;;11.95;9.43;;;25.10;59.00;;;;;;5051120;28;20052;-68
2022/01/19 13:55:05;;;;;;;13.95;8.75;;;24.00;61.00;;;;;;5051020;28;20043;-68
2022/01/19 13:58:12;;;;;;;13.27;9.65;;;24.90;60.40;;;;;;5051004;28;20419;-68
2022/01/19 14:01:23;;;;;;;12.68;8.60;;;25.20;59.20;;;;;;5051461;28;20043;-68
2022/01/19 14:04:31;;;;;;;13.18;8.65;;;22.90;59.40;;;;;;5047051;28;20059;-68
2022/01/19 14:07:45;;;;;;;13.77;9.02;;;22.60;60.60;;;;;;5051454;28;20044;-68
2022/01/19 14:10:50;;;;;;;12.38;9.15;;;22.90;61.30;;;;;;5051117;28;20056;-68
2022/01/19 14:14:03;;;;;;;17.95;9.05;;;23.60;60.80;;;;;;5050692;28;20048;-68
2022/01/19 14:17:10;;;;;;;10.65;8.38;;;23.40;61.00;;;;;;5050960;28;20048;-68
2022/01/19 14:20:19;;;;;;;11.50;8.23;;;22.90;60.80;;;;;;5049550;28;20044;-68
2022/01/19 14:23:23;;;;;;;14.45;8.15;;;21.90;61.60;;;;;;5038983;28;20048;-68
2022/01/19 14:26:28;;;;;;;11.50;7.57;;;22.90;60.60;;;;;;5051215;28;20391;-68
2022/01/19 14:29:36;;;;;;;10.52;7.45;;;23.10;60.90;;;;;;5049891;28;20135;-68
2022/01/19 14:32:54;;;;;;;11.18;7.78;;;22.20;61.50;;;;;;5049778;28;20052;-68
2022/01/19 14:36:00;;;;;;;11.85;6.75;;;23.30;61.30;;;;;;5049822;28;20048;-68
2022/01/19 14:39:04;;;;;;;7.97;5.90;;;23.80;60.60;;;;;;5050011;28;20411;-68
2022/01/19 14:42:09;;;;;;;10.05;5.80;;;24.30;60.00;;;;;;5030897;28;20052;-68
2022/01/19 14:45:25;;;;;;;7.75;5.40;;;24.50;59.20;;;;;;5031753;28;20040;-68
2022/01/19 14:48:36;;;;;;;6.82;5.15;;;23.50;59.80;;;;;;5049411;28;20051;-67
2022/01/19 14:51:43;;;;;;;11.27;6.38;;;23.40;59.80;;;;;;5050516;28;20052;-68
2022/01/19 14:54:48;;;;;;;8.13;6.05;;;23.20;61.30;;;;;;5050427;28;20048;-68
2022/01/19 14:57:52;;;;;;;7.07;5.18;;;23.20;60.80;;;;;;5049688;28;20044;-68
2022/01/19 15:00:57;;;;;;;7.38;5.57;;;21.70;60.80;;;;;;5050650;28;20035;-68
2022/01/19 15:04:03;;;;;;;13.73;6.78;;;22.00;61.90;;;;;;5049466;28;20040;-68
2022/01/19 15:07:08;;;;;;;8.50;6.68;;;21.20;62.40;;;;;;5049905;28;20036;-68
2022/01/19 15:10:13;;;;;;;11.75;8.02;;;20.90;63.10;;;;;;5049312;28;20396;-68
2022/01/19 15:13:17;;;;;;;13.77;7.75;;;20.10;64.00;;;;;;5049561;28;20051;-68
2022/01/19 15:16:21;;;;;;;11.77;7.90;;;19.50;65.30;;;;;;5048997;28;20060;-68
2022/01/19 15:19:25;;;;;;;15.55;8.40;;;18.80;65.60;;;;;;5029478;28;20048;-68
2022/01/19 15:22:30;;;;;;;11.23;8.13;;;17.30;67.90;;;;;;5039884;28;20047;-67
2022/01/19 15:25:38;;;;;;;14.35;8.27;;;17.10;68.70;;;;;;5049747;28;20043;-67
2022/01/19 15:28:44;;;;;;;15.45;8.80;;;16.60;70.40;;;;;;5048677;28;20051;-68
2022/01/19 15:31:50;;;;;;;18.83;10.85;;;16.40;71.00;;;;;;5049321;28;20379;-68
2022/01/19 15:34:54;;;;;;;16.98;10.27;;;16.20;71.30;;;;;;5049763;28;20052;-67
2022/01/19 15:38:01;;;;;;;18.45;9.82;;;16.00;71.70;;;;;;5049180;28;20044;-67
2022/01/19 15:41:08;;;;;;;12.95;9.15;;;15.30;73.40;;;;;;5049667;28;20048;-67
2022/01/19 15:44:12;;;;;;;16.02;9.20;;;14.40;74.80;;;;;;5048783;28;20037;-67
2022/01/19 15:47:18;;;;;;;13.32;9.10;;;13.80;76.90;;;;;;5049698;28;20052;-67
2022/01/19 15:50:23;;;;;;;16.25;7.93;;;13.40;78.40;;;;;;5049565;28;20242;-68
2022/01/19 15:53:27;;;;;;;17.80;9.10;;;13.10;80.00;;;;;;5048480;28;20040;-67
2022/01/19 15:56:32;;;;;;;25.23;11.45;;;12.80;81.50;;;;;;5037380;28;20276;-67
2022/01/19 15:59:41;;;;;;;18.60;11.48;;;12.50;82.90;;;;;;5049969;28;20047;-67
2022/01/19 16:02:44;;;;;;;19.95;11.18;;;12.30;84.00;;;;;;5034402;28;20052;-67
2022/01/19 16:05:51;;;;;;;31.15;16.58;;;12.00;84.60;;;;;;5050538;28;20044;-67
2022/01/19 16:08:55;;;;;;;23.77;14.55;;;11.80;87.10;;;;;;5053177;28;20068;-67
2022/01/19 16:11:59;;;;;;;212.23;102.35;;;11.60;87.40;;;;;;5053033;28;20048;-67
2022/01/19 16:15:04;;;;;;;102.22;51.28;;;11.60;89.00;;;;;;5053569;28;20060;-67
2022/01/19 16:18:08;;;;;;;58.42;28.17;;;11.40;89.20;;;;;;5052912;28;20391;-67
2022/01/19 16:21:16;;;;;;;51.17;28.40;;;11.20;90.30;;;;;;5053305;28;20056;-67
2022/01/19 16:27:43;;;;;;;47.38;28.42;;;11.10;91.40;;;;;;5034371;28;20048;-67
2022/01/19 16:30:53;;;;;;;46.63;26.13;;;11.10;91.50;;;;;;5034079;28;20049;-67
2022/01/19 16:33:56;;;;;;;50.63;29.63;;;10.90;91.70;;;;;;5032935;28;20125;-67
2022/01/19 16:37:02;;;;;;;60.53;36.55;;;10.70;92.40;;;;;;5032745;28;20527;-67
2022/01/19 16:40:07;;;;;;;56.90;34.67;;;10.50;93.30;;;;;;5032883;28;20053;-68
2022/01/19 16:43:11;;;;;;;63.25;38.47;;;10.40;93.90;;;;;;5032594;28;20052;-67
2022/01/19 16:46:20;;;;;;;87.47;43.15;;;10.20;94.70;;;;;;5032842;28;20044;-67
2022/01/19 16:49:30;;;;;;;75.88;38.80;;;10.10;95.20;;;;;;5032259;28;20052;-67
2022/01/19 16:52:34;;;;;;;72.60;39.50;;;10.10;95.70;;;;;;5032332;28;20498;-68
2022/01/19 16:55:38;;;;;;;76.15;38.95;;;10.10;96.10;;;;;;5031783;28;20048;-67
2022/01/19 16:58:42;;;;;;;62.53;33.20;;;10.20;95.90;;;;;;5031778;28;20048;-67
2022/01/19 17:01:46;;;;;;;59.85;30.15;;;10.20;96.20;;;;;;5032540;28;20048;-67
2022/01/19 17:04:50;;;;;;;68.80;31.63;;;10.30;96.10;;;;;;5031521;28;20048;-67
2022/01/19 17:07:54;;;;;;;40.03;24.20;;;10.30;96.20;;;;;;5032113;28;20504;-67
2022/01/19 17:10:59;;;;;;;33.65;20.38;;;10.40;96.50;;;;;;5031308;28;20053;-67
2022/01/19 17:14:08;;;;;;;36.08;22.70;;;10.50;96.60;;;;;;5031850;28;20082;-67
2022/01/19 17:17:16;;;;;;;42.20;21.67;;;10.50;96.40;;;;;;5032298;28;20053;-67
2022/01/19 17:20:25;;;;;;;41.45;24.58;;;10.50;96.70;;;;;;5030774;28;20036;-68
2022/01/19 17:23:30;;;;;;;39.78;22.33;;;10.40;97.30;;;;;;5031707;28;20049;-67
2022/01/19 17:26:34;;;;;;;29.95;19.88;;;10.30;97.80;;;;;;5032039;28;20040;-68
2022/01/19 17:29:38;;;;;;;31.70;18.90;;;10.30;97.90;;;;;;5031386;28;20045;-67
2022/01/19 17:32:42;;;;;;;32.55;17.17;;;10.20;97.80;;;;;;5032155;28;20060;-67
2022/01/19 17:35:47;;;;;;;33.05;18.60;;;10.20;98.00;;;;;;5032881;28;20032;-67
2022/01/19 17:38:51;;;;;;;32.85;18.05;;;10.00;98.30;;;;;;5031810;28;20044;-67
2022/01/19 17:41:57;;;;;;;38.13;21.85;;;9.90;98.90;;;;;;5032618;28;20048;-67